Time;durP1;ratioP1;P1;durP2;ratioP2;P2;SDS_P1;SDS_P2;PMS_P1;PMS_P2;Temp;Humidity;BMP_temperature;BMP_pressure;BME280_temperature;BME280_humidity;BME280_pressure;Samples;Min_cycle;Max_cycle;Signal;HPM_P1;HPM_P2
2022/07/21 00:02:16;;;;;;;12.50;11.40;;;;;;;21.19;100.00;100550.53;4945117;28;20194;-75
2022/07/21 00:04:42;;;;;;;12.80;11.80;;;;;;;21.20;100.00;100547.84;4938472;29;20297;-75
2022/07/21 00:07:08;;;;;;;12.40;11.50;;;;;;;21.20;100.00;100541.72;4946933;28;20182;-76
2022/07/21 00:09:35;;;;;;;12.60;11.40;;;;;;;21.21;100.00;100544.28;4946735;28;20689;-74
2022/07/21 00:12:01;;;;;;;11.10;10.30;;;;;;;21.18;100.00;100539.16;4943290;29;20206;-78
2022/07/21 00:14:27;;;;;;;11.73;10.83;;;;;;;21.17;100.00;100543.59;4945046;28;20643;-77
2022/07/21 00:16:52;;;;;;;10.93;10.13;;;;;;;21.16;100.00;100546.28;4944962;28;20191;-75
2022/07/21 00:19:18;;;;;;;11.77;10.67;;;;;;;21.15;100.00;100539.31;4948495;28;20281;-74
2022/07/21 00:21:43;;;;;;;11.67;10.57;;;;;;;21.09;100.00;100547.53;4950935;28;20194;-75
2022/07/21 00:24:08;;;;;;;11.23;10.33;;;;;;;21.05;100.00;100545.97;4948967;28;20225;-76
2022/07/21 00:26:34;;;;;;;11.30;10.40;;;;;;;21.02;100.00;100547.81;4951128;29;20178;-75
2022/07/21 00:28:59;;;;;;;11.27;10.33;;;;;;;21.02;100.00;100557.50;4947174;28;20251;-77
2022/07/21 00:31:26;;;;;;;11.30;10.40;;;;;;;20.99;100.00;100563.75;4945433;29;20213;-76
2022/07/21 00:33:52;;;;;;;10.83;10.00;;;;;;;21.00;100.00;100561.97;4949666;29;20815;-75
2022/07/21 00:36:18;;;;;;;10.20;9.50;;;;;;;20.99;100.00;100569.00;4950954;28;20427;-76
2022/07/21 00:38:44;;;;;;;10.53;9.57;;;;;;;20.99;100.00;100571.63;4962497;28;20276;-76
2022/07/21 00:41:09;;;;;;;11.03;10.23;;;;;;;20.99;100.00;100569.00;4949056;28;20191;-75
2022/07/21 00:43:34;;;;;;;11.30;10.40;;;;;;;20.97;100.00;100570.00;4949423;28;20201;-76
2022/07/21 00:46:00;;;;;;;11.50;10.70;;;;;;;20.95;100.00;100571.88;4949521;29;20338;-76
2022/07/21 00:48:25;;;;;;;11.07;10.17;;;;;;;20.93;100.00;100565.81;4951573;28;20207;-77
2022/07/21 00:50:51;;;;;;;11.20;10.20;;;;;;;20.88;100.00;100571.31;4945600;28;20191;-75
2022/07/21 00:53:16;;;;;;;11.03;10.23;;;;;;;20.87;100.00;100566.97;4948678;29;20197;-76
2022/07/21 00:55:46;;;;;;;11.13;10.33;;;;;;;20.86;100.00;100576.66;4949417;29;20642;-76
2022/07/21 00:58:12;;;;;;;11.63;10.63;;;;;;;20.83;100.00;100575.91;4949457;28;20202;-77
2022/07/21 01:00:38;;;;;;;10.87;10.07;;;;;;;20.80;100.00;100578.69;4950427;28;20187;-77
2022/07/21 01:03:04;;;;;;;11.30;10.40;;;;;;;20.76;100.00;100580.63;4946789;28;20317;-77
2022/07/21 01:05:29;;;;;;;10.00;9.20;;;;;;;20.75;100.00;100583.31;4950807;28;20296;-77
2022/07/21 01:07:58;;;;;;;10.60;9.90;;;;;;;20.73;100.00;100574.63;4950914;28;20222;-77
2022/07/21 01:10:24;;;;;;;9.93;9.23;;;;;;;20.70;100.00;100573.00;4947038;28;20209;-76
2022/07/21 01:12:50;;;;;;;9.83;9.03;;;;;;;20.69;100.00;100579.19;4938973;29;20630;-77
2022/07/21 01:15:17;;;;;;;10.00;9.20;;;;;;;20.68;100.00;100588.84;4951214;28;20186;-76
2022/07/21 01:17:44;;;;;;;10.30;9.50;;;;;;;20.68;100.00;100580.94;4947629;28;20206;-77
2022/07/21 01:20:12;;;;;;;9.90;9.20;;;;;;;20.70;100.00;100586.16;4948264;28;20187;-76
2022/07/21 01:22:41;;;;;;;10.07;9.37;;;;;;;20.70;100.00;100588.78;4943123;29;20186;-77
2022/07/21 01:25:07;;;;;;;9.90;9.20;;;;;;;20.71;100.00;100582.59;4944978;29;20222;-77
2022/07/21 01:27:33;;;;;;;10.10;9.30;;;;;;;20.69;100.00;100577.41;4949038;28;20182;-76
2022/07/21 01:29:59;;;;;;;9.60;8.90;;;;;;;20.67;100.00;100584.50;4949071;28;20663;-79
2022/07/21 01:32:24;;;;;;;9.33;8.60;;;;;;;20.65;100.00;100594.22;4946153;28;20183;-76
2022/07/21 01:34:50;;;;;;;9.63;8.93;;;;;;;20.63;100.00;100585.59;4949458;28;20186;-78
2022/07/21 01:37:20;;;;;;;8.97;8.27;;;;;;;20.60;100.00;100598.00;4945803;28;20190;-77
2022/07/21 01:42:31;;;;;;;9.27;8.60;;;;;;;20.53;100.00;100603.56;4943520;29;20273;-78
2022/07/21 01:44:57;;;;;;;9.83;9.10;;;;;;;20.51;100.00;100607.16;4944149;28;20374;-78
2022/07/21 01:47:22;;;;;;;8.97;8.27;;;;;;;20.49;100.00;100604.63;4947896;28;20194;-77
2022/07/21 01:49:48;;;;;;;9.33;8.53;;;;;;;20.48;100.00;100607.31;4947779;28;20724;-77
2022/07/21 01:52:14;;;;;;;9.77;9.07;;;;;;;20.44;100.00;100606.59;4945729;28;20673;-77
2022/07/21 01:54:39;;;;;;;9.43;8.63;;;;;;;20.44;100.00;100608.38;4949988;28;20214;-77
2022/07/21 01:57:04;;;;;;;9.50;8.70;;;;;;;20.43;100.00;100601.41;4950586;28;20194;-77
2022/07/21 01:59:30;;;;;;;9.60;8.77;;;;;;;20.43;100.00;100612.75;4953943;28;20221;-78
2022/07/21 02:01:55;;;;;;;8.63;8.03;;;;;;;20.46;100.00;100614.41;4948077;28;20187;-77
2022/07/21 02:04:20;;;;;;;9.67;8.97;;;;;;;20.49;100.00;100616.91;4944366;28;20203;-76
2022/07/21 02:06:46;;;;;;;8.93;8.23;;;;;;;20.50;100.00;100619.47;4949831;28;20642;-76
2022/07/21 02:09:11;;;;;;;9.80;9.10;;;;;;;20.53;100.00;100619.34;4948985;28;20320;-75
2022/07/21 02:11:38;;;;;;;9.73;9.03;;;;;;;20.59;100.00;100623.47;4950501;28;20195;-76
2022/07/21 02:14:03;;;;;;;9.40;8.70;;;;;;;20.65;100.00;100623.16;4943445;28;20196;-78
2022/07/21 02:16:29;;;;;;;10.50;9.70;;;;;;;20.71;100.00;100625.50;4945040;28;20354;-76
2022/07/21 02:18:54;;;;;;;9.80;9.10;;;;;;;20.77;100.00;100631.47;4943399;28;20704;-77
2022/07/21 02:21:20;;;;;;;9.30;8.50;;;;;;;20.82;100.00;100637.34;4943158;28;20777;-77
2022/07/21 02:23:46;;;;;;;9.83;9.13;;;;;;;20.85;100.00;100643.34;4945772;28;20191;-76
2022/07/21 02:26:11;;;;;;;9.53;8.83;;;;;;;20.91;100.00;100643.94;4949660;28;20190;-76
2022/07/21 02:28:37;;;;;;;10.60;9.77;;;;;;;20.93;100.00;100642.97;4938949;28;20203;-76
2022/07/21 02:31:03;;;;;;;10.00;9.20;;;;;;;20.97;100.00;100646.31;4945185;28;20187;-75
2022/07/21 02:33:29;;;;;;;9.87;9.17;;;;;;;20.99;100.00;100647.09;4942027;28;20194;-76
2022/07/21 02:35:54;;;;;;;9.20;8.50;;;;;;;21.00;100.00;100649.63;4944428;29;20189;-76
2022/07/21 02:38:20;;;;;;;9.27;8.67;;;;;;;21.04;100.00;100642.44;4947676;28;20587;-76
2022/07/21 02:40:45;;;;;;;9.47;8.67;;;;;;;21.03;100.00;100640.75;4943378;28;20191;-77
2022/07/21 02:43:11;;;;;;;9.57;8.87;;;;;;;21.05;100.00;100645.94;4942191;29;20294;-76
2022/07/21 02:45:41;;;;;;;9.60;8.90;;;;;;;21.06;100.00;100647.66;4939031;29;20204;-77
2022/07/21 02:48:09;;;;;;;9.53;8.83;;;;;;;21.07;100.00;100647.56;4949252;28;20233;-76
2022/07/21 02:50:37;;;;;;;9.60;8.80;;;;;;;21.09;100.00;100647.53;4948055;28;20179;-76
2022/07/21 02:53:05;;;;;;;10.07;9.27;;;;;;;21.10;100.00;100652.69;4947107;28;20317;-77
2022/07/21 02:55:30;;;;;;;9.23;8.53;;;;;;;21.10;100.00;100651.84;4946339;28;20765;-76
2022/07/21 02:58:24;;;;;;;10.13;9.23;;;;;;;21.12;100.00;100652.63;4945966;28;20285;-76
2022/07/21 03:00:50;;;;;;;10.10;9.40;;;;;;;21.12;100.00;100648.22;4944618;28;20294;-76
2022/07/21 03:03:15;;;;;;;10.10;9.40;;;;;;;21.12;100.00;100652.63;4946079;29;20751;-76
2022/07/21 03:05:41;;;;;;;11.97;11.07;;;;;;;21.15;100.00;100652.47;4944002;29;20737;-75
2022/07/21 03:08:09;;;;;;;12.33;11.43;;;;;;;21.15;100.00;100647.22;4949094;28;20301;-75
2022/07/21 03:10:35;;;;;;;12.10;11.10;;;;;;;21.14;100.00;100646.38;4946271;28;20194;-76
2022/07/21 03:13:00;;;;;;;12.87;11.77;;;;;;;21.15;100.00;100652.47;4947301;28;20191;-77
2022/07/21 03:15:26;;;;;;;12.83;11.83;;;;;;;21.15;100.00;100649.84;4945046;29;20186;-76
2022/07/21 03:17:53;;;;;;;13.57;12.37;;;;;;;21.12;100.00;100648.22;4938824;28;20585;-75
2022/07/21 03:20:18;;;;;;;13.50;12.40;;;;;;;21.11;100.00;100641.25;4945622;28;20278;-76
2022/07/21 03:22:43;;;;;;;13.53;12.53;;;;;;;21.11;100.00;100645.63;4950487;28;20606;-77
2022/07/21 03:25:09;;;;;;;14.07;12.97;;;;;;;21.11;100.00;100648.28;4945454;29;20217;-77
2022/07/21 03:27:36;;;;;;;14.00;12.80;;;;;;;21.11;100.00;100659.66;4942213;28;20695;-77
2022/07/21 03:30:08;;;;;;;13.57;12.47;;;;;;;21.12;100.00;100665.78;4941708;28;20182;-77
2022/07/21 03:32:34;;;;;;;12.53;11.57;;;;;;;21.11;100.00;100664.94;4947606;28;20210;-77
2022/07/21 03:35:00;;;;;;;11.97;11.07;;;;;;;21.12;100.00;100660.50;4950353;28;20183;-77
2022/07/21 03:37:26;;;;;;;12.23;11.23;;;;;;;21.10;100.00;100663.22;4940860;28;20258;-76
2022/07/21 03:39:52;;;;;;;12.83;11.90;;;;;;;21.08;100.00;100672.13;4946321;28;20225;-76
2022/07/21 03:42:17;;;;;;;12.67;11.57;;;;;;;21.06;100.00;100673.97;4935107;28;20194;-77
2022/07/21 03:44:42;;;;;;;12.37;11.37;;;;;;;21.01;100.00;100666.31;4948099;28;20220;-77
2022/07/21 03:47:08;;;;;;;12.03;11.10;;;;;;;20.96;100.00;100669.13;4945440;29;20186;-76
2022/07/21 03:49:33;;;;;;;12.23;11.33;;;;;;;20.92;100.00;100670.22;4945929;28;20218;-77
2022/07/21 03:51:59;;;;;;;11.77;10.87;;;;;;;20.88;100.00;100675.66;4945771;29;20246;-77
2022/07/21 03:54:24;;;;;;;12.10;11.10;;;;;;;20.85;100.00;100674.91;4948085;29;20178;-77
2022/07/21 03:56:49;;;;;;;12.23;11.27;;;;;;;20.86;100.00;100681.88;4949093;28;20191;-77
2022/07/21 03:59:15;;;;;;;13.10;12.00;;;;;;;20.88;100.00;100676.53;4940785;28;20221;-77
2022/07/21 04:01:40;;;;;;;11.80;10.90;;;;;;;20.90;100.00;100674.69;4939059;29;20540;-77
2022/07/21 04:04:06;;;;;;;13.03;12.13;;;;;;;20.92;100.00;100671.97;4942816;29;20203;-77
2022/07/21 04:06:31;;;;;;;13.47;12.27;;;;;;;20.93;100.00;100679.81;4944545;28;20189;-77
2022/07/21 04:08:57;;;;;;;12.23;11.33;;;;;;;20.95;100.00;100677.09;4939779;28;20703;-77
2022/07/21 04:11:22;;;;;;;13.37;12.27;;;;;;;20.99;100.00;100678.66;4946096;28;20195;-76
2022/07/21 04:13:47;;;;;;;13.60;12.60;;;;;;;21.05;100.00;100673.09;4946193;29;20241;-76
2022/07/21 04:16:13;;;;;;;13.10;12.20;;;;;;;21.09;100.00;100673.84;4955995;28;20296;-75
2022/07/21 04:18:38;;;;;;;14.47;13.33;;;;;;;21.16;100.00;100676.09;4945482;28;20234;-76
2022/07/21 04:21:04;;;;;;;13.50;12.60;;;;;;;21.23;100.00;100673.16;4949401;28;20182;-75
2022/07/21 04:23:29;;;;;;;13.83;12.83;;;;;;;21.28;100.00;100668.53;4948321;28;20190;-76
2022/07/21 04:25:55;;;;;;;13.60;12.43;;;;;;;21.34;100.00;100678.75;4945491;29;20219;-76
2022/07/21 04:28:20;;;;;;;14.50;13.30;;;;;;;21.36;100.00;100676.06;4940431;28;20234;-77
2022/07/21 04:30:46;;;;;;;13.93;12.87;;;;;;;21.37;100.00;100669.88;4947860;29;20194;-77
2022/07/21 04:33:11;;;;;;;14.60;13.50;;;;;;;21.40;100.00;100675.84;4943484;29;20265;-78
2022/07/21 04:35:37;;;;;;;13.47;12.40;;;;;;;21.42;100.00;100671.38;4949651;28;20281;-75
2022/07/21 04:38:02;;;;;;;13.87;12.87;;;;;;;21.44;100.00;100677.41;4948254;28;20253;-76
2022/07/21 04:40:27;;;;;;;13.20;12.20;;;;;;;21.44;100.00;100680.03;4946213;29;20190;-75
2022/07/21 04:42:53;;;;;;;14.00;12.90;;;;;;;21.47;100.00;100682.53;4943550;29;20191;-76
2022/07/21 04:45:19;;;;;;;14.10;13.10;;;;;;;21.50;100.00;100672.75;4963257;28;20218;-75
2022/07/21 04:47:50;;;;;;;14.70;13.60;;;;;;;21.52;100.00;100676.16;4954549;28;20197;-75
2022/07/21 04:50:17;;;;;;;14.00;12.80;;;;;;;21.51;100.00;100680.59;4945635;28;20680;-75
2022/07/21 04:52:43;;;;;;;13.63;12.53;;;;;;;21.56;100.00;100688.28;4964628;29;20210;-77
2022/07/21 04:55:10;;;;;;;14.73;13.57;;;;;;;21.62;100.00;100683.59;4970819;28;20173;-77
2022/07/21 04:57:44;;;;;;;13.97;12.87;;;;;;;21.76;100.00;100692.59;4968015;28;20277;-76
2022/07/21 05:00:12;;;;;;;14.23;13.07;;;;;;;21.98;100.00;100688.88;4956552;29;20686;-75
2022/07/21 05:02:38;;;;;;;14.30;13.20;;;;;;;22.13;100.00;100689.88;4962122;28;20647;-79
2022/07/21 05:05:04;;;;;;;13.13;12.03;;;;;;;22.18;100.00;100696.63;4954295;28;20261;-75
2022/07/21 05:07:30;;;;;;;13.97;12.87;;;;;;;22.26;100.00;100698.03;4952095;28;20221;-78
2022/07/21 05:09:57;;;;;;;13.97;12.97;;;;;;;22.32;100.00;100697.69;4955686;28;20182;-77
2022/07/21 05:12:22;;;;;;;13.87;12.80;;;;;;;22.40;100.00;100698.16;4955051;28;20194;-74
2022/07/21 05:14:48;;;;;;;14.40;13.20;;;;;;;22.41;100.00;100701.63;4964623;28;20210;-75
2022/07/21 05:17:13;;;;;;;12.60;11.63;;;;;;;22.34;100.00;100707.25;4934957;29;20202;-75
2022/07/21 05:19:38;;;;;;;13.03;12.03;;;;;;;22.29;100.00;100708.41;4947426;29;20721;-76
2022/07/21 05:22:04;;;;;;;12.50;11.60;;;;;;;22.19;100.00;100711.50;4943696;28;20219;-76
2022/07/21 05:24:29;;;;;;;11.37;10.57;;;;;;;22.14;100.00;100710.91;4941973;29;20231;-76
2022/07/21 05:26:54;;;;;;;12.03;11.10;;;;;;;22.14;100.00;100707.41;4949521;29;20186;-75
2022/07/21 05:29:23;;;;;;;13.97;12.87;;;;;;;22.14;100.00;100712.66;4951136;28;20220;-77
2022/07/21 05:31:48;;;;;;;14.13;12.83;;;;;;;22.13;100.00;100713.59;4947828;28;20215;-77
2022/07/21 05:34:13;;;;;;;13.33;12.23;;;;;;;22.13;100.00;100711.84;4966383;28;20218;-78
2022/07/21 05:36:39;;;;;;;13.70;12.57;;;;;;;22.13;100.00;100714.47;4949866;28;20240;-77
2022/07/21 05:39:04;;;;;;;14.27;13.10;;;;;;;22.13;100.00;100714.47;4947190;28;20218;-77
2022/07/21 05:41:29;;;;;;;13.50;12.40;;;;;;;22.11;100.00;100718.97;4943424;28;20226;-77
2022/07/21 05:43:55;;;;;;;12.03;11.03;;;;;;;22.11;100.00;100710.19;4947031;29;20197;-76
2022/07/21 05:46:20;;;;;;;13.20;12.10;;;;;;;22.14;100.00;100707.41;4949741;28;20220;-75
2022/07/21 05:48:45;;;;;;;13.57;12.43;;;;;;;22.21;100.00;100707.00;4951542;28;20218;-75
2022/07/21 05:51:11;;;;;;;14.80;13.50;;;;;;;22.28;100.00;100702.28;4948602;28;20847;-79
2022/07/21 05:53:36;;;;;;;14.30;13.20;;;;;;;22.32;100.00;100705.59;4946006;28;20677;-77
2022/07/21 05:56:02;;;;;;;13.50;12.50;;;;;;;22.37;100.00;100707.09;4950679;28;20187;-78
2022/07/21 05:58:27;;;;;;;13.63;12.53;;;;;;;22.57;100.00;100712.28;4939778;28;20215;-77
2022/07/21 06:01:08;;;;;;;13.00;12.00;;;;;;;22.87;100.00;100707.13;4946707;28;20198;-74
2022/07/21 06:03:42;;;;;;;13.13;12.03;;;;;;;23.27;100.00;100710.28;4967673;28;20191;-77
2022/07/21 06:06:08;;;;;;;12.43;11.40;;;;;;;24.47;100.00;100708.69;4963300;28;20191;-75
2022/07/21 06:08:34;;;;;;;11.13;10.23;;;;;;;25.85;100.00;100708.84;4941924;29;20222;-76
2022/07/21 06:10:59;;;;;;;11.33;10.47;;;;;;;27.28;100.00;100708.81;4951619;28;20205;-76
2022/07/21 06:13:25;;;;;;;11.13;10.27;;;;;;;28.50;95.90;100704.16;4950362;28;20205;-79
2022/07/21 06:15:50;;;;;;;11.03;10.13;;;;;;;29.55;91.62;100703.78;4943589;29;20194;-78
2022/07/21 06:18:16;;;;;;;9.27;8.53;;;;;;;30.68;88.87;100707.63;4965445;28;20233;-77
2022/07/21 06:20:42;;;;;;;9.60;8.90;;;;;;;31.47;84.97;100708.66;4952611;28;20193;-78
2022/07/21 06:23:07;;;;;;;9.23;8.47;;;;;;;31.36;84.57;100714.16;4950519;28;20194;-78
2022/07/21 06:25:33;;;;;;;8.57;7.90;;;;;;;30.47;85.35;100712.16;4946728;28;20244;-77
2022/07/21 06:27:58;;;;;;;9.03;8.43;;;;;;;29.47;87.51;100715.09;4947623;28;20249;-76
2022/07/21 06:30:24;;;;;;;8.57;7.87;;;;;;;28.52;89.62;100715.53;4947621;29;20201;-78
2022/07/21 06:32:49;;;;;;;8.57;7.93;;;;;;;27.75;92.21;100719.59;4961875;28;20191;-78
2022/07/21 06:35:14;;;;;;;8.30;7.70;;;;;;;27.15;94.20;100712.34;4946166;28;20303;-77
2022/07/21 06:37:45;;;;;;;8.10;7.50;;;;;;;26.73;95.63;100722.41;4944019;29;20703;-77
2022/07/21 06:40:10;;;;;;;9.53;8.83;;;;;;;26.37;96.28;100713.38;4950862;28;20187;-76
2022/07/21 06:42:36;;;;;;;9.27;8.53;;;;;;;25.98;96.52;100730.09;4950910;28;20647;-76
2022/07/21 06:45:02;;;;;;;9.23;8.43;;;;;;;25.75;96.93;100721.03;4952947;28;20210;-76
2022/07/21 06:47:27;;;;;;;9.53;8.77;;;;;;;25.56;97.82;100732.81;4948595;28;20187;-76
2022/07/21 06:49:53;;;;;;;8.43;7.73;;;;;;;25.39;98.21;100717.13;4949833;28;20731;-77
2022/07/21 06:52:18;;;;;;;9.53;8.83;;;;;;;25.25;98.79;100726.00;4950330;28;20693;-76
2022/07/21 06:54:44;;;;;;;9.13;8.33;;;;;;;25.07;99.19;100728.84;4949594;28;20179;-76
2022/07/21 06:57:09;;;;;;;9.10;8.40;;;;;;;24.90;99.76;100727.25;4948039;28;20570;-76
2022/07/21 06:59:34;;;;;;;9.60;8.70;;;;;;;24.80;100.00;100734.06;4942664;29;20202;-76
2022/07/21 07:02:00;;;;;;;9.50;8.80;;;;;;;24.73;100.00;100732.75;4944890;28;20258;-76
2022/07/21 07:04:25;;;;;;;8.90;8.30;;;;;;;24.63;100.00;100735.91;4949693;28;20273;-78
2022/07/21 07:06:52;;;;;;;8.93;8.33;;;;;;;24.59;100.00;100734.41;4949570;28;20298;-76
2022/07/21 07:09:18;;;;;;;9.73;8.93;;;;;;;24.61;100.00;100737.81;4950384;28;20289;-78
2022/07/21 07:11:44;;;;;;;9.27;8.57;;;;;;;24.71;100.00;100735.47;4947548;28;20687;-78
2022/07/21 07:14:09;;;;;;;8.90;8.20;;;;;;;24.87;100.00;100745.13;4949722;28;20202;-78
2022/07/21 07:16:35;;;;;;;9.20;8.40;;;;;;;24.91;100.00;100739.53;4952515;28;20190;-76
2022/07/21 07:19:00;;;;;;;8.00;7.43;;;;;;;24.99;100.00;100741.72;4942120;28;20214;-76
2022/07/21 07:21:26;;;;;;;8.63;7.97;;;;;;;25.15;100.00;100741.59;4964254;28;20718;-77
2022/07/21 07:23:51;;;;;;;8.47;7.87;;;;;;;25.27;100.00;100746.13;4949254;28;20194;-76
2022/07/21 07:26:16;;;;;;;9.13;8.43;;;;;;;25.45;99.86;100747.72;4947317;28;20621;-75
2022/07/21 07:28:42;;;;;;;8.20;7.60;;;;;;;25.78;99.11;100747.34;4948329;28;20226;-76
2022/07/21 07:31:07;;;;;;;7.93;7.37;;;;;;;25.98;97.95;100750.44;4946143;28;20198;-77
2022/07/21 07:33:32;;;;;;;8.03;7.40;;;;;;;26.01;97.64;100751.09;4949420;28;20201;-76
2022/07/21 07:35:58;;;;;;;9.30;8.40;;;;;;;25.97;96.77;100757.56;4949104;28;20273;-78
2022/07/21 07:38:23;;;;;;;8.93;8.23;;;;;;;25.88;96.54;100755.50;4946134;28;20610;-77
2022/07/21 07:40:49;;;;;;;9.17;8.47;;;;;;;26.07;96.09;100756.94;4940918;28;20198;-78
2022/07/21 07:43:14;;;;;;;9.37;8.67;;;;;;;26.62;94.76;100741.72;4948211;29;20297;-78
2022/07/21 07:45:40;;;;;;;8.60;7.90;;;;;;;27.05;93.43;100751.19;4949276;29;20213;-77
2022/07/21 07:48:06;;;;;;;8.90;8.20;;;;;;;27.24;92.70;100748.88;4963955;28;20582;-76
2022/07/21 07:50:31;;;;;;;9.10;8.27;;;;;;;27.34;92.69;100743.75;4942381;28;20194;-76
2022/07/21 07:52:57;;;;;;;7.80;7.30;;;;;;;27.52;92.05;100741.59;4946124;28;20194;-76
2022/07/21 07:55:22;;;;;;;8.80;8.10;;;;;;;28.21;90.40;100732.06;4963851;28;20186;-75
2022/07/21 07:57:48;;;;;;;9.50;8.70;;;;;;;28.69;88.91;100733.69;4946983;28;20693;-75
2022/07/21 08:00:16;;;;;;;7.70;7.10;;;;;;;29.47;87.48;100732.94;4947334;28;20197;-77
2022/07/21 08:02:42;;;;;;;8.33;7.67;;;;;;;30.21;85.26;100733.91;4947931;29;20198;-77
2022/07/21 08:05:08;;;;;;;8.10;7.50;;;;;;;30.77;84.01;100731.84;4948066;28;20221;-76
2022/07/21 08:07:37;;;;;;;8.10;7.50;;;;;;;30.68;84.16;100728.16;4948493;28;20281;-76
2022/07/21 08:10:04;;;;;;;8.97;8.27;;;;;;;30.25;85.08;100730.84;4945117;29;20217;-76
2022/07/21 08:12:29;;;;;;;9.33;8.63;;;;;;;30.00;85.51;100729.44;4947563;28;20198;-76
2022/07/21 08:14:55;;;;;;;8.77;8.17;;;;;;;30.02;85.21;100739.97;4946538;28;20193;-76
2022/07/21 08:17:20;;;;;;;9.43;8.50;;;;;;;30.03;83.35;100737.19;4945915;28;20221;-76
2022/07/21 08:19:46;;;;;;;9.80;9.10;;;;;;;30.13;83.32;100734.56;4946598;28;20214;-77
2022/07/21 08:22:11;;;;;;;10.53;9.63;;;;;;;30.38;83.17;100737.84;4947801;28;20194;-77
2022/07/21 08:24:37;;;;;;;9.40;8.63;;;;;;;30.56;82.92;100728.22;4963469;28;20210;-76
2022/07/21 08:27:03;;;;;;;9.87;9.17;;;;;;;30.73;82.42;100731.25;4948556;28;20182;-76
2022/07/21 08:29:29;;;;;;;9.63;9.03;;;;;;;30.89;80.04;100729.91;4943936;28;20211;-76
2022/07/21 08:31:54;;;;;;;9.20;8.50;;;;;;;30.84;79.50;100728.50;4935664;29;20190;-77
2022/07/21 08:34:19;;;;;;;9.73;8.93;;;;;;;30.73;79.58;100733.94;4947936;28;20321;-76
2022/07/21 08:36:45;;;;;;;9.73;8.73;;;;;;;30.67;78.21;100734.47;4949819;28;20205;-75
2022/07/21 08:39:10;;;;;;;10.20;9.30;;;;;;;30.44;78.56;100745.28;4967312;28;20206;-75
2022/07/21 08:41:37;;;;;;;9.87;9.07;;;;;;;30.26;78.68;100734.38;4950970;29;20193;-76
2022/07/21 08:44:03;;;;;;;8.77;8.07;;;;;;;30.11;79.28;100748.06;4965967;28;20198;-77
2022/07/21 08:46:29;;;;;;;8.87;8.17;;;;;;;30.01;79.46;100747.16;4944355;29;20199;-75
2022/07/21 08:48:57;;;;;;;8.70;8.10;;;;;;;29.94;79.54;100745.94;4950451;28;20210;-76
2022/07/21 08:51:22;;;;;;;9.20;8.50;;;;;;;29.97;79.54;100751.06;4949606;28;20198;-77
2022/07/21 08:53:48;;;;;;;8.13;7.53;;;;;;;29.95;79.49;100751.16;4957098;28;20568;-77
2022/07/21 08:56:14;;;;;;;9.43;8.73;;;;;;;29.98;79.34;100759.88;4950460;28;20202;-76
2022/07/21 08:58:40;;;;;;;9.33;8.63;;;;;;;29.74;79.95;100761.78;4966867;28;20238;-76
2022/07/21 09:01:05;;;;;;;8.60;8.00;;;;;;;29.39;80.76;100754.03;4951020;29;20677;-76
2022/07/21 09:03:32;;;;;;;9.00;8.30;;;;;;;28.96;81.64;100753.81;4951306;28;20704;-76
2022/07/21 09:06:11;;;;;;;9.10;8.17;;;;;;;28.60;82.56;100758.38;4949333;28;20203;-76
2022/07/21 09:08:44;;;;;;;8.53;7.93;;;;;;;28.51;83.19;100741.31;4950298;28;20214;-75
2022/07/21 09:11:24;;;;;;;7.93;7.33;;;;;;;28.55;82.84;100739.25;4966111;28;21050;-76
2022/07/21 09:14:07;;;;;;;7.20;6.70;;;;;;;28.63;82.81;100731.50;4948609;29;20194;-77
2022/07/21 09:16:43;;;;;;;8.13;7.43;;;;;;;28.69;82.54;100728.38;4962351;28;20198;-76
2022/07/21 09:19:17;;;;;;;7.23;6.73;;;;;;;28.76;81.94;100728.78;4949461;29;20642;-76
2022/07/21 09:21:43;;;;;;;7.50;6.90;;;;;;;28.74;81.84;100726.22;4946466;28;20192;-77
2022/07/21 09:24:21;;;;;;;7.13;6.63;;;;;;;28.79;81.42;100733.00;4948079;29;20297;-77
2022/07/21 09:27:08;;;;;;;7.37;6.87;;;;;;;29.09;80.24;100729.72;4951705;28;20245;-77
2022/07/21 09:29:45;;;;;;;7.40;6.90;;;;;;;29.42;79.03;100730.63;4966144;28;20254;-76
2022/07/21 09:32:26;;;;;;;6.97;6.47;;;;;;;29.81;76.84;100738.09;4950888;29;20201;-76
2022/07/21 09:35:14;;;;;;;7.43;6.73;;;;;;;30.20;76.37;100741.09;4960182;28;20191;-76
2022/07/21 09:37:40;;;;;;;7.70;7.20;;;;;;;30.37;75.47;100726.28;4938154;28;20198;-75
2022/07/21 09:40:07;;;;;;;7.00;6.50;;;;;;;30.40;74.66;100734.03;4942716;28;20187;-76
2022/07/21 09:42:42;;;;;;;7.13;6.63;;;;;;;30.34;74.95;100741.72;4951156;28;20385;-76
2022/07/21 09:45:12;;;;;;;6.97;6.47;;;;;;;30.45;75.25;100730.13;4952051;28;20214;-74
2022/07/21 09:47:39;;;;;;;7.67;7.17;;;;;;;30.36;75.18;100732.59;4950110;28;20199;-74
2022/07/21 09:50:06;;;;;;;6.77;6.37;;;;;;;30.11;75.49;100734.72;4950895;29;20202;-74
2022/07/21 09:52:37;;;;;;;7.33;6.70;;;;;;;29.99;75.87;100738.44;4951792;28;20562;-74
2022/07/21 09:55:24;;;;;;;7.03;6.43;;;;;;;30.18;75.30;100718.16;4950432;28;20662;-75
2022/07/21 09:57:51;;;;;;;6.80;6.30;;;;;;;30.32;73.22;100714.31;4947497;28;20227;-75
2022/07/21 10:00:18;;;;;;;6.75;6.20;;;;;;;30.35;72.35;100720.22;4944939;28;20190;-75
2022/07/21 10:02:44;;;;;;;6.87;6.27;;;;;;;30.31;72.34;100718.81;4954124;28;20196;-76
2022/07/21 10:05:13;;;;;;;5.97;5.47;;;;;;;30.31;72.29;100721.50;4949989;28;20317;-77
2022/07/21 10:07:41;;;;;;;6.43;5.93;;;;;;;30.32;72.34;100725.00;4949405;28;20194;-76
2022/07/21 10:10:07;;;;;;;5.60;5.20;;;;;;;30.46;72.17;100718.47;4945646;28;20676;-75
2022/07/21 10:12:36;;;;;;;6.70;6.20;;;;;;;30.55;72.21;100723.03;4951237;28;20305;-75
2022/07/21 10:15:02;;;;;;;6.50;6.10;;;;;;;30.37;72.38;100722.78;4948654;29;20199;-76
2022/07/21 10:17:27;;;;;;;5.90;5.50;;;;;;;30.04;73.11;100727.38;4950748;28;20199;-76
2022/07/21 10:20:24;;;;;;;6.43;6.00;;;;;;;29.56;73.88;100720.66;4950577;28;20218;-76
2022/07/21 10:23:17;;;;;;;6.70;6.20;;;;;;;29.30;74.41;100719.13;4957848;28;20195;-76
2022/07/21 10:25:43;;;;;;;6.37;5.90;;;;;;;29.37;73.83;100719.50;4950827;28;20704;-76
2022/07/21 10:28:18;;;;;;;5.83;5.43;;;;;;;29.37;74.24;100715.97;4950520;28;20210;-76
2022/07/21 10:30:46;;;;;;;5.90;5.50;;;;;;;29.28;74.06;100718.41;4942480;28;20281;-74
2022/07/21 10:33:13;;;;;;;6.57;6.07;;;;;;;29.13;74.64;100725.81;4945009;29;20609;-75
2022/07/21 10:35:41;;;;;;;6.97;6.37;;;;;;;29.13;75.20;100722.31;4946992;28;20269;-76
2022/07/21 10:38:26;;;;;;;7.00;6.50;;;;;;;28.98;75.87;100719.06;4944488;29;20305;-75
2022/07/21 10:40:52;;;;;;;6.67;6.27;;;;;;;28.77;76.78;100724.28;4965324;28;20199;-75
2022/07/21 10:43:23;;;;;;;6.50;6.00;;;;;;;28.53;77.14;100722.56;4960700;28;20194;-76
2022/07/21 10:45:49;;;;;;;5.57;5.17;;;;;;;28.45;76.28;100717.84;4959957;29;20218;-77
2022/07/21 10:48:36;;;;;;;5.40;5.00;;;;;;;28.45;76.01;100715.19;4950663;28;20218;-77
2022/07/21 10:51:13;;;;;;;4.67;4.37;;;;;;;28.43;74.99;100717.97;4946452;29;20230;-75
2022/07/21 10:53:39;;;;;;;5.00;4.60;;;;;;;28.32;75.06;100715.28;4964665;28;20216;-75
2022/07/21 10:56:31;;;;;;;4.30;4.00;;;;;;;28.25;74.79;100720.22;4946561;28;20224;-76
2022/07/21 10:58:54;;;;;;;4.53;4.23;;;;;;;28.35;74.54;100701.72;4944308;28;20226;-79
2022/07/21 11:01:24;;;;;;;3.97;3.77;;;;;;;28.55;73.88;100705.50;4946203;28;20191;-77
2022/07/21 11:04:07;;;;;;;3.83;3.53;;;;;;;28.58;73.66;100704.41;4952439;28;20211;-77
2022/07/21 11:06:34;;;;;;;4.10;3.80;;;;;;;28.47;73.50;100707.91;4948121;28;20194;-75
2022/07/21 11:09:02;;;;;;;3.33;3.13;;;;;;;28.38;73.42;100704.16;4947571;28;20203;-77
2022/07/21 11:11:29;;;;;;;3.70;3.50;;;;;;;28.37;73.32;100701.59;4966213;28;20203;-74
2022/07/21 11:13:59;;;;;;;2.90;2.70;;;;;;;28.67;72.67;100702.81;4952110;28;20190;-75
2022/07/21 11:16:49;;;;;;;3.77;3.33;;;;;;;29.11;72.33;100693.13;4947165;28;20206;-77
2022/07/21 11:19:39;;;;;;;4.80;4.40;;;;;;;29.50;71.38;100692.66;4960906;28;20337;-77